Terminal Aerodrome Forecast
Issued by NWS

Home | Current Version | Previous Version | Text Only | Print | Product List | Glossary On
Versions: 1 2 3 4 5 6 7 8 9 10 11 12 13 14
000
FTUS45 KFGZ 302340
TAFPRC
TAF
KPRC 302340Z 3100/3124 22010G18KT P6SM VCTS SCT090 BKN110CB
      TEMPO 3100/3102 VRB12G22KT 5SM -TSRA BKN070CB
     FM310200 VRB06KT P6SM BKN090
     FM311800 26010KT P6SM SCT110 BKN130
      TEMPO 3120/3124 VRB15G25KT -TSRA SCT050 BKN100CB=

USA.gov is the U.S. government's official web portal to all federal, state and local government web resources and services.